sensor_id;sensor_type;location;lat;lon;timestamp;temperature;humidity
23186;DHT22;11761;51.324;4.590;2022-09-29T00:00:34;7.20;99.90
23186;DHT22;11761;51.324;4.590;2022-09-29T00:03:00;7.30;99.90
23186;DHT22;11761;51.324;4.590;2022-09-29T00:05:27;7.30;99.90
23186;DHT22;11761;51.324;4.590;2022-09-29T00:07:53;7.30;99.90
23186;DHT22;11761;51.324;4.590;2022-09-29T00:10:19;7.20;99.90
23186;DHT22;11761;51.324;4.590;2022-09-29T00:12:45;7.30;99.90
23186;DHT22;11761;51.324;4.590;2022-09-29T00:15:12;7.20;99.90
23186;DHT22;11761;51.324;4.590;2022-09-29T00:17:39;7.20;99.90
23186;DHT22;11761;51.324;4.590;2022-09-29T00:20:05;7.30;99.90
23186;DHT22;11761;51.324;4.590;2022-09-29T00:22:31;7.20;99.90
23186;DHT22;11761;51.324;4.590;2022-09-29T00:24:57;7.10;99.90
23186;DHT22;11761;51.324;4.590;2022-09-29T00:27:24;7.10;99.90
23186;DHT22;11761;51.324;4.590;2022-09-29T00:29:50;7.10;99.90
23186;DHT22;11761;51.324;4.590;2022-09-29T00:32:16;7.10;99.90
23186;DHT22;11761;51.324;4.590;2022-09-29T00:34:42;7.00;99.90
23186;DHT22;11761;51.324;4.590;2022-09-29T00:37:09;7.10;99.90
23186;DHT22;11761;51.324;4.590;2022-09-29T00:39:35;7.00;99.90
23186;DHT22;11761;51.324;4.590;2022-09-29T00:42:01;6.90;99.90
23186;DHT22;11761;51.324;4.590;2022-09-29T00:47:18;6.90;99.90
23186;DHT22;11761;51.324;4.590;2022-09-29T00:49:49;6.80;99.90
23186;DHT22;11761;51.324;4.590;2022-09-29T00:52:32;6.80;99.90
23186;DHT22;11761;51.324;4.590;2022-09-29T00:55:04;6.80;99.90
23186;DHT22;11761;51.324;4.590;2022-09-29T00:57:37;6.80;99.90
23186;DHT22;11761;51.324;4.590;2022-09-29T01:00:08;6.80;99.90
23186;DHT22;11761;51.324;4.590;2022-09-29T01:02:39;6.80;99.90
23186;DHT22;11761;51.324;4.590;2022-09-29T01:05:12;6.80;99.90
23186;DHT22;11761;51.324;4.590;2022-09-29T01:07:40;6.70;99.90
23186;DHT22;11761;51.324;4.590;2022-09-29T01:10:10;6.70;99.90
23186;DHT22;11761;51.324;4.590;2022-09-29T01:12:37;6.70;99.90
23186;DHT22;11761;51.324;4.590;2022-09-29T01:15:03;6.70;99.90
23186;DHT22;11761;51.324;4.590;2022-09-29T01:17:29;6.70;99.90
23186;DHT22;11761;51.324;4.590;2022-09-29T01:33:20;6.60;99.90
23186;DHT22;11761;51.324;4.590;2022-09-29T01:39:02;6.60;99.90
23186;DHT22;11761;51.324;4.590;2022-09-29T01:42:18;6.60;99.90
23186;DHT22;11761;51.324;4.590;2022-09-29T01:44:36;6.60;99.90
23186;DHT22;11761;51.324;4.590;2022-09-29T01:47:06;6.60;99.90
23186;DHT22;11761;51.324;4.590;2022-09-29T01:49:37;6.50;99.90
23186;DHT22;11761;51.324;4.590;2022-09-29T01:52:17;6.50;99.90
23186;DHT22;11761;51.324;4.590;2022-09-29T01:54:59;6.50;99.90
23186;DHT22;11761;51.324;4.590;2022-09-29T02:00:08;6.30;99.90
23186;DHT22;11761;51.324;4.590;2022-09-29T02:05:46;6.30;99.90
23186;DHT22;11761;51.324;4.590;2022-09-29T02:10:49;6.50;99.90
23186;DHT22;11761;51.324;4.590;2022-09-29T02:13:17;6.60;99.90
23186;DHT22;11761;51.324;4.590;2022-09-29T02:15:47;6.60;99.90
23186;DHT22;11761;51.324;4.590;2022-09-29T02:18:21;6.60;99.90
23186;DHT22;11761;51.324;4.590;2022-09-29T02:20:49;6.60;99.90
23186;DHT22;11761;51.324;4.590;2022-09-29T02:23:16;6.50;99.90
23186;DHT22;11761;51.324;4.590;2022-09-29T02:25:43;6.50;99.90
23186;DHT22;11761;51.324;4.590;2022-09-29T02:28:12;6.60;99.90
23186;DHT22;11761;51.324;4.590;2022-09-29T02:30:39;6.50;99.90
23186;DHT22;11761;51.324;4.590;2022-09-29T02:33:05;6.50;99.90
23186;DHT22;11761;51.324;4.590;2022-09-29T02:35:43;6.40;99.90
23186;DHT22;11761;51.324;4.590;2022-09-29T02:38:21;6.40;99.90
23186;DHT22;11761;51.324;4.590;2022-09-29T02:41:42;6.50;99.90
23186;DHT22;11761;51.324;4.590;2022-09-29T02:46:36;6.50;99.90
23186;DHT22;11761;51.324;4.590;2022-09-29T02:51:52;6.60;99.90
23186;DHT22;11761;51.324;4.590;2022-09-29T02:55:06;6.70;99.90
23186;DHT22;11761;51.324;4.590;2022-09-29T02:57:52;6.60;99.90
23186;DHT22;11761;51.324;4.590;2022-09-29T03:00:19;6.50;99.90
23186;DHT22;11761;51.324;4.590;2022-09-29T03:02:46;6.60;99.90
23186;DHT22;11761;51.324;4.590;2022-09-29T03:05:15;6.60;99.90
23186;DHT22;11761;51.324;4.590;2022-09-29T03:07:42;6.60;99.90
23186;DHT22;11761;51.324;4.590;2022-09-29T03:10:10;6.60;99.90
23186;DHT22;11761;51.324;4.590;2022-09-29T03:12:37;6.60;99.90
23186;DHT22;11761;51.324;4.590;2022-09-29T03:15:04;6.50;99.90
23186;DHT22;11761;51.324;4.590;2022-09-29T03:17:30;6.50;99.90
23186;DHT22;11761;51.324;4.590;2022-09-29T03:19:56;6.50;99.90
23186;DHT22;11761;51.324;4.590;2022-09-29T03:22:23;6.50;99.90
23186;DHT22;11761;51.324;4.590;2022-09-29T03:24:49;6.40;99.90
23186;DHT22;11761;51.324;4.590;2022-09-29T03:27:16;6.40;99.90
23186;DHT22;11761;51.324;4.590;2022-09-29T03:29:42;6.40;99.90
23186;DHT22;11761;51.324;4.590;2022-09-29T03:32:08;6.40;99.90
23186;DHT22;11761;51.324;4.590;2022-09-29T03:34:35;6.40;99.90
23186;DHT22;11761;51.324;4.590;2022-09-29T03:37:01;6.40;99.90
23186;DHT22;11761;51.324;4.590;2022-09-29T03:39:28;6.40;99.90
23186;DHT22;11761;51.324;4.590;2022-09-29T03:41:54;6.40;99.90
23186;DHT22;11761;51.324;4.590;2022-09-29T03:44:20;6.40;99.90
23186;DHT22;11761;51.324;4.590;2022-09-29T03:46:46;6.40;99.90
23186;DHT22;11761;51.324;4.590;2022-09-29T03:49:14;6.40;99.90
23186;DHT22;11761;51.324;4.590;2022-09-29T03:51:41;6.30;99.90
23186;DHT22;11761;51.324;4.590;2022-09-29T03:54:07;6.30;99.90
23186;DHT22;11761;51.324;4.590;2022-09-29T03:56:33;6.30;99.90
23186;DHT22;11761;51.324;4.590;2022-09-29T03:59:00;6.30;99.90
23186;DHT22;11761;51.324;4.590;2022-09-29T04:01:28;6.40;99.90
23186;DHT22;11761;51.324;4.590;2022-09-29T04:03:54;6.40;99.90
23186;DHT22;11761;51.324;4.590;2022-09-29T04:06:20;6.40;99.90
23186;DHT22;11761;51.324;4.590;2022-09-29T04:08:47;6.40;99.90
23186;DHT22;11761;51.324;4.590;2022-09-29T04:11:14;6.40;99.90
23186;DHT22;11761;51.324;4.590;2022-09-29T04:13:40;6.40;99.90
23186;DHT22;11761;51.324;4.590;2022-09-29T04:16:06;6.40;99.90
23186;DHT22;11761;51.324;4.590;2022-09-29T04:18:33;6.40;99.90
23186;DHT22;11761;51.324;4.590;2022-09-29T04:21:03;6.40;99.90
23186;DHT22;11761;51.324;4.590;2022-09-29T04:23:30;6.40;99.90
23186;DHT22;11761;51.324;4.590;2022-09-29T04:25:56;6.30;99.90
23186;DHT22;11761;51.324;4.590;2022-09-29T04:28:23;6.30;99.90
23186;DHT22;11761;51.324;4.590;2022-09-29T04:30:50;6.30;99.90
23186;DHT22;11761;51.324;4.590;2022-09-29T04:33:17;6.30;99.90
23186;DHT22;11761;51.324;4.590;2022-09-29T04:35:43;6.30;99.90
23186;DHT22;11761;51.324;4.590;2022-09-29T04:38:09;6.30;99.90
23186;DHT22;11761;51.324;4.590;2022-09-29T04:40:36;6.30;99.90
23186;DHT22;11761;51.324;4.590;2022-09-29T04:43:03;6.30;99.90
23186;DHT22;11761;51.324;4.590;2022-09-29T04:45:29;6.30;99.90
23186;DHT22;11761;51.324;4.590;2022-09-29T04:47:56;6.20;99.90
23186;DHT22;11761;51.324;4.590;2022-09-29T04:50:23;6.20;99.90
23186;DHT22;11761;51.324;4.590;2022-09-29T04:52:49;6.20;99.90
23186;DHT22;11761;51.324;4.590;2022-09-29T04:55:16;6.20;99.90
23186;DHT22;11761;51.324;4.590;2022-09-29T04:57:42;6.20;99.90
23186;DHT22;11761;51.324;4.590;2022-09-29T05:00:10;6.20;99.90
23186;DHT22;11761;51.324;4.590;2022-09-29T05:02:37;6.10;99.90
23186;DHT22;11761;51.324;4.590;2022-09-29T05:05:03;6.20;99.90
23186;DHT22;11761;51.324;4.590;2022-09-29T05:07:33;6.10;99.90
23186;DHT22;11761;51.324;4.590;2022-09-29T05:10:00;6.10;99.90
23186;DHT22;11761;51.324;4.590;2022-09-29T05:12:26;6.10;99.90
23186;DHT22;11761;51.324;4.590;2022-09-29T05:14:52;6.10;99.90
23186;DHT22;11761;51.324;4.590;2022-09-29T05:17:18;6.00;99.90
23186;DHT22;11761;51.324;4.590;2022-09-29T05:19:44;6.00;99.90
23186;DHT22;11761;51.324;4.590;2022-09-29T05:22:10;6.00;99.90
23186;DHT22;11761;51.324;4.590;2022-09-29T05:24:37;5.80;99.90
23186;DHT22;11761;51.324;4.590;2022-09-29T05:27:03;5.80;99.90
23186;DHT22;11761;51.324;4.590;2022-09-29T05:29:29;5.80;99.90
23186;DHT22;11761;51.324;4.590;2022-09-29T05:31:55;5.70;99.90
23186;DHT22;11761;51.324;4.590;2022-09-29T05:34:22;5.50;99.90
23186;DHT22;11761;51.324;4.590;2022-09-29T05:36:48;5.60;99.90
23186;DHT22;11761;51.324;4.590;2022-09-29T05:39:14;5.70;99.90
23186;DHT22;11761;51.324;4.590;2022-09-29T05:41:40;5.70;99.90
23186;DHT22;11761;51.324;4.590;2022-09-29T05:44:07;5.70;99.90
23186;DHT22;11761;51.324;4.590;2022-09-29T05:46:33;5.70;99.90
23186;DHT22;11761;51.324;4.590;2022-09-29T05:49:00;5.80;99.90
23186;DHT22;11761;51.324;4.590;2022-09-29T05:51:26;5.80;99.90
23186;DHT22;11761;51.324;4.590;2022-09-29T05:53:53;5.50;99.90
23186;DHT22;11761;51.324;4.590;2022-09-29T05:56:22;5.40;99.90
23186;DHT22;11761;51.324;4.590;2022-09-29T05:58:49;5.30;99.90
23186;DHT22;11761;51.324;4.590;2022-09-29T06:01:33;5.30;99.90
23186;DHT22;11761;51.324;4.590;2022-09-29T06:04:00;5.30;99.90
23186;DHT22;11761;51.324;4.590;2022-09-29T06:06:27;5.40;99.90
23186;DHT22;11761;51.324;4.590;2022-09-29T06:08:54;5.50;99.90
23186;DHT22;11761;51.324;4.590;2022-09-29T06:11:27;5.60;99.90
23186;DHT22;11761;51.324;4.590;2022-09-29T06:13:54;5.60;99.90
23186;DHT22;11761;51.324;4.590;2022-09-29T06:16:26;5.60;99.90
23186;DHT22;11761;51.324;4.590;2022-09-29T06:18:53;5.60;99.90
23186;DHT22;11761;51.324;4.590;2022-09-29T06:21:22;5.60;99.90
23186;DHT22;11761;51.324;4.590;2022-09-29T06:23:49;5.50;99.90
23186;DHT22;11761;51.324;4.590;2022-09-29T06:26:18;5.50;99.90
23186;DHT22;11761;51.324;4.590;2022-09-29T06:28:44;5.60;99.90
23186;DHT22;11761;51.324;4.590;2022-09-29T06:31:13;5.70;99.90
23186;DHT22;11761;51.324;4.590;2022-09-29T06:33:40;5.80;99.90
23186;DHT22;11761;51.324;4.590;2022-09-29T06:36:18;5.90;99.90
23186;DHT22;11761;51.324;4.590;2022-09-29T06:39:05;6.00;99.90
23186;DHT22;11761;51.324;4.590;2022-09-29T06:41:31;6.10;99.90
23186;DHT22;11761;51.324;4.590;2022-09-29T06:43:57;6.20;99.90
23186;DHT22;11761;51.324;4.590;2022-09-29T06:46:24;6.40;99.90
23186;DHT22;11761;51.324;4.590;2022-09-29T06:48:55;6.50;99.90
23186;DHT22;11761;51.324;4.590;2022-09-29T06:51:22;6.60;99.90
23186;DHT22;11761;51.324;4.590;2022-09-29T06:53:49;6.70;99.90
23186;DHT22;11761;51.324;4.590;2022-09-29T06:56:16;6.70;99.90
23186;DHT22;11761;51.324;4.590;2022-09-29T06:58:46;6.80;99.90
23186;DHT22;11761;51.324;4.590;2022-09-29T07:01:12;6.80;99.90
23186;DHT22;11761;51.324;4.590;2022-09-29T07:03:39;6.90;99.90
23186;DHT22;11761;51.324;4.590;2022-09-29T07:06:07;7.00;99.90
23186;DHT22;11761;51.324;4.590;2022-09-29T07:08:35;7.00;99.90
23186;DHT22;11761;51.324;4.590;2022-09-29T07:11:06;7.10;99.90
23186;DHT22;11761;51.324;4.590;2022-09-29T07:13:33;7.20;99.90
23186;DHT22;11761;51.324;4.590;2022-09-29T07:16:07;7.30;99.90
23186;DHT22;11761;51.324;4.590;2022-09-29T07:18:35;7.40;99.90
23186;DHT22;11761;51.324;4.590;2022-09-29T07:21:08;7.40;99.90
23186;DHT22;11761;51.324;4.590;2022-09-29T07:23:36;7.50;99.90
23186;DHT22;11761;51.324;4.590;2022-09-29T07:26:04;7.50;99.90
23186;DHT22;11761;51.324;4.590;2022-09-29T07:28:30;7.70;99.90
23186;DHT22;11761;51.324;4.590;2022-09-29T07:31:05;7.70;99.90
23186;DHT22;11761;51.324;4.590;2022-09-29T07:33:32;7.80;99.90
23186;DHT22;11761;51.324;4.590;2022-09-29T07:35:58;7.90;99.90
23186;DHT22;11761;51.324;4.590;2022-09-29T07:38:29;8.00;99.90
23186;DHT22;11761;51.324;4.590;2022-09-29T07:41:00;8.00;99.90
23186;DHT22;11761;51.324;4.590;2022-09-29T07:43:27;8.10;99.90
23186;DHT22;11761;51.324;4.590;2022-09-29T07:45:53;8.30;99.90
23186;DHT22;11761;51.324;4.590;2022-09-29T07:48:19;8.40;99.90
23186;DHT22;11761;51.324;4.590;2022-09-29T07:50:45;8.50;99.90
23186;DHT22;11761;51.324;4.590;2022-09-29T07:53:12;8.60;99.90
23186;DHT22;11761;51.324;4.590;2022-09-29T07:55:39;8.70;99.90
23186;DHT22;11761;51.324;4.590;2022-09-29T07:58:05;8.80;99.90
23186;DHT22;11761;51.324;4.590;2022-09-29T08:00:32;8.90;99.90
23186;DHT22;11761;51.324;4.590;2022-09-29T08:02:59;9.00;99.90
23186;DHT22;11761;51.324;4.590;2022-09-29T08:05:28;9.00;99.90
23186;DHT22;11761;51.324;4.590;2022-09-29T08:07:54;9.10;99.90
23186;DHT22;11761;51.324;4.590;2022-09-29T08:10:22;9.10;99.90
23186;DHT22;11761;51.324;4.590;2022-09-29T08:12:48;9.30;99.90
23186;DHT22;11761;51.324;4.590;2022-09-29T08:15:15;9.40;99.90
23186;DHT22;11761;51.324;4.590;2022-09-29T08:17:41;9.60;99.90
23186;DHT22;11761;51.324;4.590;2022-09-29T08:20:07;9.70;99.90
23186;DHT22;11761;51.324;4.590;2022-09-29T08:22:33;9.90;99.90
23186;DHT22;11761;51.324;4.590;2022-09-29T08:25:01;10.00;99.90
23186;DHT22;11761;51.324;4.590;2022-09-29T08:27:28;10.10;99.90
23186;DHT22;11761;51.324;4.590;2022-09-29T08:29:54;10.20;99.90
23186;DHT22;11761;51.324;4.590;2022-09-29T08:32:22;10.40;99.90
23186;DHT22;11761;51.324;4.590;2022-09-29T08:34:48;10.70;99.90
23186;DHT22;11761;51.324;4.590;2022-09-29T08:37:14;10.70;99.90
23186;DHT22;11761;51.324;4.590;2022-09-29T08:39:40;10.80;99.90
23186;DHT22;11761;51.324;4.590;2022-09-29T08:45:10;11.00;99.90
23186;DHT22;11761;51.324;4.590;2022-09-29T08:47:45;11.00;99.90
23186;DHT22;11761;51.324;4.590;2022-09-29T08:50:36;11.20;99.90
23186;DHT22;11761;51.324;4.590;2022-09-29T08:53:11;11.40;99.90
23186;DHT22;11761;51.324;4.590;2022-09-29T08:55:43;11.40;99.90
23186;DHT22;11761;51.324;4.590;2022-09-29T08:58:13;11.50;99.90
23186;DHT22;11761;51.324;4.590;2022-09-29T09:09:41;11.80;99.90
23186;DHT22;11761;51.324;4.590;2022-09-29T09:13:04;11.90;99.90
23186;DHT22;11761;51.324;4.590;2022-09-29T09:15:23;12.00;99.90
23186;DHT22;11761;51.324;4.590;2022-09-29T09:20:44;12.20;99.90
23186;DHT22;11761;51.324;4.590;2022-09-29T09:23:25;12.20;99.90
23186;DHT22;11761;51.324;4.590;2022-09-29T09:25:56;12.30;99.90
23186;DHT22;11761;51.324;4.590;2022-09-29T09:33:33;12.70;99.90
23186;DHT22;11761;51.324;4.590;2022-09-29T09:36:07;12.70;99.90
23186;DHT22;11761;51.324;4.590;2022-09-29T09:41:44;12.70;99.90
23186;DHT22;11761;51.324;4.590;2022-09-29T09:46:48;13.00;99.90
23186;DHT22;11761;51.324;4.590;2022-09-29T09:54:42;13.30;99.90
23186;DHT22;11761;51.324;4.590;2022-09-29T10:00:03;13.40;99.90
23186;DHT22;11761;51.324;4.590;2022-09-29T10:02:32;13.50;99.90
23186;DHT22;11761;51.324;4.590;2022-09-29T10:04:58;13.60;99.90
23186;DHT22;11761;51.324;4.590;2022-09-29T10:07:27;13.70;99.90
23186;DHT22;11761;51.324;4.590;2022-09-29T10:09:55;14.10;99.90
23186;DHT22;11761;51.324;4.590;2022-09-29T10:12:23;14.20;99.90
23186;DHT22;11761;51.324;4.590;2022-09-29T10:14:56;14.30;99.90
23186;DHT22;11761;51.324;4.590;2022-09-29T10:17:31;14.30;99.90
23186;DHT22;11761;51.324;4.590;2022-09-29T10:20:01;14.50;99.90
23186;DHT22;11761;51.324;4.590;2022-09-29T10:22:29;14.50;99.90
23186;DHT22;11761;51.324;4.590;2022-09-29T10:25:28;14.70;99.90
23186;DHT22;11761;51.324;4.590;2022-09-29T10:27:54;14.80;99.90
23186;DHT22;11761;51.324;4.590;2022-09-29T10:30:33;15.20;99.90
23186;DHT22;11761;51.324;4.590;2022-09-29T10:33:02;15.30;99.90
23186;DHT22;11761;51.324;4.590;2022-09-29T10:35:38;15.30;99.90
23186;DHT22;11761;51.324;4.590;2022-09-29T10:41:05;15.30;99.90
23186;DHT22;11761;51.324;4.590;2022-09-29T10:43:40;15.20;99.90
23186;DHT22;11761;51.324;4.590;2022-09-29T10:49:13;15.30;99.90
23186;DHT22;11761;51.324;4.590;2022-09-29T10:51:41;15.40;99.90
23186;DHT22;11761;51.324;4.590;2022-09-29T10:54:14;15.30;99.90
23186;DHT22;11761;51.324;4.590;2022-09-29T10:56:48;15.40;99.90
23186;DHT22;11761;51.324;4.590;2022-09-29T10:59:15;15.80;99.90
23186;DHT22;11761;51.324;4.590;2022-09-29T11:01:48;15.40;99.90
23186;DHT22;11761;51.324;4.590;2022-09-29T11:04:23;14.80;99.90
23186;DHT22;11761;51.324;4.590;2022-09-29T11:06:50;14.60;99.90
23186;DHT22;11761;51.324;4.590;2022-09-29T11:14:25;14.10;99.90
23186;DHT22;11761;51.324;4.590;2022-09-29T11:16:54;14.00;99.90
23186;DHT22;11761;51.324;4.590;2022-09-29T11:19:20;13.90;99.90
23186;DHT22;11761;51.324;4.590;2022-09-29T11:28:27;13.80;99.90
23186;DHT22;11761;51.324;4.590;2022-09-29T11:33:35;13.70;99.90
23186;DHT22;11761;51.324;4.590;2022-09-29T11:36:52;13.60;99.90
23186;DHT22;11761;51.324;4.590;2022-09-29T12:14:14;14.30;99.90
23186;DHT22;11761;51.324;4.590;2022-09-29T12:17:08;14.20;99.90
23186;DHT22;11761;51.324;4.590;2022-09-29T12:19:36;14.20;99.90
23186;DHT22;11761;51.324;4.590;2022-09-29T12:22:08;14.30;99.90
23186;DHT22;11761;51.324;4.590;2022-09-29T12:24:49;14.30;99.90
23186;DHT22;11761;51.324;4.590;2022-09-29T12:27:37;14.20;99.90
23186;DHT22;11761;51.324;4.590;2022-09-29T12:32:45;14.10;99.90
23186;DHT22;11761;51.324;4.590;2022-09-29T12:35:17;14.00;99.90
23186;DHT22;11761;51.324;4.590;2022-09-29T12:41:16;13.90;99.90
23186;DHT22;11761;51.324;4.590;2022-09-29T12:46:26;14.10;99.90
23186;DHT22;11761;51.324;4.590;2022-09-29T12:49:31;14.10;99.90
23186;DHT22;11761;51.324;4.590;2022-09-29T12:52:01;14.10;99.90
23186;DHT22;11761;51.324;4.590;2022-09-29T12:54:35;14.00;99.90
23186;DHT22;11761;51.324;4.590;2022-09-29T12:57:14;13.90;99.90
23186;DHT22;11761;51.324;4.590;2022-09-29T12:59:50;14.00;99.90
23186;DHT22;11761;51.324;4.590;2022-09-29T13:11:15;15.20;99.90
23186;DHT22;11761;51.324;4.590;2022-09-29T13:13:52;15.20;99.90
23186;DHT22;11761;51.324;4.590;2022-09-29T13:16:36;15.50;99.90
23186;DHT22;11761;51.324;4.590;2022-09-29T13:27:54;15.90;99.90
23186;DHT22;11761;51.324;4.590;2022-09-29T13:30:26;15.50;99.90
23186;DHT22;11761;51.324;4.590;2022-09-29T13:33:12;15.40;99.90
23186;DHT22;11761;51.324;4.590;2022-09-29T13:35:42;15.40;99.90
23186;DHT22;11761;51.324;4.590;2022-09-29T13:41:14;15.90;99.90
23186;DHT22;11761;51.324;4.590;2022-09-29T13:59:59;16.80;99.90
23186;DHT22;11761;51.324;4.590;2022-09-29T14:02:37;17.10;99.90
23186;DHT22;11761;51.324;4.590;2022-09-29T14:05:34;16.80;99.90
23186;DHT22;11761;51.324;4.590;2022-09-29T14:10:36;15.80;99.90
23186;DHT22;11761;51.324;4.590;2022-09-29T14:18:37;15.30;99.90
23186;DHT22;11761;51.324;4.590;2022-09-29T14:21:08;15.10;99.90
23186;DHT22;11761;51.324;4.590;2022-09-29T14:26:50;14.90;99.90
23186;DHT22;11761;51.324;4.590;2022-09-29T14:29:29;14.80;99.90
23186;DHT22;11761;51.324;4.590;2022-09-29T14:31:59;14.70;99.90
23186;DHT22;11761;51.324;4.590;2022-09-29T14:34:28;14.70;99.90
23186;DHT22;11761;51.324;4.590;2022-09-29T14:36:57;14.80;99.90
23186;DHT22;11761;51.324;4.590;2022-09-29T14:39:25;14.90;99.90
23186;DHT22;11761;51.324;4.590;2022-09-29T14:41:52;15.10;99.90
23186;DHT22;11761;51.324;4.590;2022-09-29T15:02:12;15.10;99.90
23186;DHT22;11761;51.324;4.590;2022-09-29T15:04:43;15.20;99.90
23186;DHT22;11761;51.324;4.590;2022-09-29T15:07:14;15.20;99.90
23186;DHT22;11761;51.324;4.590;2022-09-29T15:09:55;15.20;99.90
23186;DHT22;11761;51.324;4.590;2022-09-29T15:12:25;15.20;99.90
23186;DHT22;11761;51.324;4.590;2022-09-29T15:14:53;15.30;99.90
23186;DHT22;11761;51.324;4.590;2022-09-29T15:17:55;15.20;99.90
23186;DHT22;11761;51.324;4.590;2022-09-29T15:20:32;15.10;99.90
23186;DHT22;11761;51.324;4.590;2022-09-29T15:23:02;15.10;99.90
23186;DHT22;11761;51.324;4.590;2022-09-29T15:25:34;15.10;99.90
23186;DHT22;11761;51.324;4.590;2022-09-29T15:28:16;15.10;99.90
23186;DHT22;11761;51.324;4.590;2022-09-29T15:30:43;15.00;99.90
23186;DHT22;11761;51.324;4.590;2022-09-29T15:35:51;14.70;99.90
23186;DHT22;11761;51.324;4.590;2022-09-29T15:40:55;14.40;99.90
23186;DHT22;11761;51.324;4.590;2022-09-29T15:43:24;14.30;99.90
23186;DHT22;11761;51.324;4.590;2022-09-29T15:48:22;14.10;99.90
23186;DHT22;11761;51.324;4.590;2022-09-29T15:50:48;14.00;99.90
23186;DHT22;11761;51.324;4.590;2022-09-29T15:53:14;13.80;99.90
23186;DHT22;11761;51.324;4.590;2022-09-29T15:55:40;13.60;99.90
23186;DHT22;11761;51.324;4.590;2022-09-29T16:01:02;13.50;99.90
23186;DHT22;11761;51.324;4.590;2022-09-29T16:06:19;13.40;99.90
23186;DHT22;11761;51.324;4.590;2022-09-29T16:08:52;13.40;99.90
23186;DHT22;11761;51.324;4.590;2022-09-29T16:11:25;13.30;99.90
23186;DHT22;11761;51.324;4.590;2022-09-29T16:14:02;13.20;99.90
23186;DHT22;11761;51.324;4.590;2022-09-29T16:16:43;13.20;99.90
23186;DHT22;11761;51.324;4.590;2022-09-29T16:21:54;13.10;99.90
23186;DHT22;11761;51.324;4.590;2022-09-29T16:24:23;13.00;99.90
23186;DHT22;11761;51.324;4.590;2022-09-29T16:26:53;13.00;99.90
23186;DHT22;11761;51.324;4.590;2022-09-29T16:29:33;12.90;99.90
23186;DHT22;11761;51.324;4.590;2022-09-29T16:35:35;12.80;99.90
23186;DHT22;11761;51.324;4.590;2022-09-29T16:38:23;12.70;99.90
23186;DHT22;11761;51.324;4.590;2022-09-29T16:40:52;12.60;99.90
23186;DHT22;11761;51.324;4.590;2022-09-29T16:43:27;12.50;99.90
23186;DHT22;11761;51.324;4.590;2022-09-29T16:46:00;12.40;99.90
23186;DHT22;11761;51.324;4.590;2022-09-29T16:48:29;12.30;99.90
23186;DHT22;11761;51.324;4.590;2022-09-29T16:50:59;12.30;99.90
23186;DHT22;11761;51.324;4.590;2022-09-29T16:53:29;12.30;99.90
23186;DHT22;11761;51.324;4.590;2022-09-29T16:56:01;12.30;99.90
23186;DHT22;11761;51.324;4.590;2022-09-29T16:58:29;12.30;99.90
23186;DHT22;11761;51.324;4.590;2022-09-29T17:00:55;12.20;99.90
23186;DHT22;11761;51.324;4.590;2022-09-29T17:03:22;12.10;99.90
23186;DHT22;11761;51.324;4.590;2022-09-29T17:05:48;12.10;99.90
23186;DHT22;11761;51.324;4.590;2022-09-29T17:08:24;12.00;99.90
23186;DHT22;11761;51.324;4.590;2022-09-29T17:10:55;11.90;99.90
23186;DHT22;11761;51.324;4.590;2022-09-29T17:13:22;11.90;99.90
23186;DHT22;11761;51.324;4.590;2022-09-29T17:15:50;11.80;99.90
23186;DHT22;11761;51.324;4.590;2022-09-29T17:18:18;11.70;99.90
23186;DHT22;11761;51.324;4.590;2022-09-29T17:20:48;11.60;99.90
23186;DHT22;11761;51.324;4.590;2022-09-29T17:23:14;11.50;99.90
23186;DHT22;11761;51.324;4.590;2022-09-29T17:25:43;11.40;99.90
23186;DHT22;11761;51.324;4.590;2022-09-29T17:28:27;11.40;99.90
23186;DHT22;11761;51.324;4.590;2022-09-29T17:30:53;11.20;99.90
23186;DHT22;11761;51.324;4.590;2022-09-29T17:33:20;11.10;99.90
23186;DHT22;11761;51.324;4.590;2022-09-29T17:35:48;11.00;99.90
23186;DHT22;11761;51.324;4.590;2022-09-29T17:38:16;10.90;99.90
23186;DHT22;11761;51.324;4.590;2022-09-29T17:40:55;10.80;99.90
23186;DHT22;11761;51.324;4.590;2022-09-29T17:43:22;10.70;99.90
23186;DHT22;11761;51.324;4.590;2022-09-29T17:45:50;10.60;99.90
23186;DHT22;11761;51.324;4.590;2022-09-29T17:48:16;10.60;99.90
23186;DHT22;11761;51.324;4.590;2022-09-29T17:50:52;10.50;99.90
23186;DHT22;11761;51.324;4.590;2022-09-29T17:53:19;10.40;99.90
23186;DHT22;11761;51.324;4.590;2022-09-29T17:55:48;10.40;99.90
23186;DHT22;11761;51.324;4.590;2022-09-29T17:58:15;10.40;99.90
23186;DHT22;11761;51.324;4.590;2022-09-29T18:00:44;10.30;99.90
23186;DHT22;11761;51.324;4.590;2022-09-29T18:03:12;10.30;99.90
23186;DHT22;11761;51.324;4.590;2022-09-29T18:05:40;10.20;99.90
23186;DHT22;11761;51.324;4.590;2022-09-29T18:08:13;10.20;99.90
23186;DHT22;11761;51.324;4.590;2022-09-29T18:10:42;10.10;99.90
23186;DHT22;11761;51.324;4.590;2022-09-29T18:13:09;10.00;99.90
23186;DHT22;11761;51.324;4.590;2022-09-29T18:15:37;10.00;99.90
23186;DHT22;11761;51.324;4.590;2022-09-29T18:18:05;9.90;99.90
23186;DHT22;11761;51.324;4.590;2022-09-29T18:20:34;10.00;99.90
23186;DHT22;11761;51.324;4.590;2022-09-29T18:23:05;9.90;99.90
23186;DHT22;11761;51.324;4.590;2022-09-29T18:25:32;9.80;99.90
23186;DHT22;11761;51.324;4.590;2022-09-29T18:27:59;9.80;99.90
23186;DHT22;11761;51.324;4.590;2022-09-29T18:30:31;9.80;99.90
23186;DHT22;11761;51.324;4.590;2022-09-29T18:32:59;9.80;99.90
23186;DHT22;11761;51.324;4.590;2022-09-29T18:35:33;9.70;99.90
23186;DHT22;11761;51.324;4.590;2022-09-29T18:38:00;9.70;99.90
23186;DHT22;11761;51.324;4.590;2022-09-29T18:40:29;9.60;99.90
23186;DHT22;11761;51.324;4.590;2022-09-29T18:42:56;9.60;99.90
23186;DHT22;11761;51.324;4.590;2022-09-29T18:45:26;9.60;99.90
23186;DHT22;11761;51.324;4.590;2022-09-29T18:47:56;9.60;99.90
23186;DHT22;11761;51.324;4.590;2022-09-29T18:50:41;9.60;99.90
23186;DHT22;11761;51.324;4.590;2022-09-29T18:53:13;9.60;99.90
23186;DHT22;11761;51.324;4.590;2022-09-29T18:55:40;9.60;99.90
23186;DHT22;11761;51.324;4.590;2022-09-29T18:58:12;9.60;99.90
23186;DHT22;11761;51.324;4.590;2022-09-29T19:00:42;9.60;99.90
23186;DHT22;11761;51.324;4.590;2022-09-29T19:03:08;9.50;99.90
23186;DHT22;11761;51.324;4.590;2022-09-29T19:05:35;9.40;99.90
23186;DHT22;11761;51.324;4.590;2022-09-29T19:08:03;9.30;99.90
23186;DHT22;11761;51.324;4.590;2022-09-29T19:10:32;9.30;99.90
23186;DHT22;11761;51.324;4.590;2022-09-29T19:13:01;9.30;99.90
23186;DHT22;11761;51.324;4.590;2022-09-29T19:15:30;9.20;99.90
23186;DHT22;11761;51.324;4.590;2022-09-29T19:17:58;9.20;99.90
23186;DHT22;11761;51.324;4.590;2022-09-29T19:20:26;9.10;99.90
23186;DHT22;11761;51.324;4.590;2022-09-29T19:22:54;9.10;99.90
23186;DHT22;11761;51.324;4.590;2022-09-29T19:25:23;9.10;99.90
23186;DHT22;11761;51.324;4.590;2022-09-29T19:27:50;9.00;99.90
23186;DHT22;11761;51.324;4.590;2022-09-29T19:30:19;9.00;99.90
23186;DHT22;11761;51.324;4.590;2022-09-29T19:32:47;9.00;99.90
23186;DHT22;11761;51.324;4.590;2022-09-29T19:35:15;8.90;99.90